Time;durP1;ratioP1;P1;durP2;ratioP2;P2;SDS_P1;SDS_P2;PMS_P1;PMS_P2;Temp;Humidity;BMP_temperature;BMP_pressure;BME280_temperature;BME280_humidity;BME280_pressure;Samples;Min_cycle;Max_cycle;Signal;HPM_P1;HPM_P2
2023/12/09 00:00:28;;;;;;;186.63;27.03;;;1.20;99.90;;;;;;5046882;28;20925;-81
2023/12/09 00:02:55;;;;;;;255.17;31.13;;;1.20;99.90;;;;;;5045555;28;20685;-81
2023/12/09 00:05:23;;;;;;;98.83;21.67;;;1.20;99.90;;;;;;5051614;28;20227;-82
2023/12/09 00:07:50;;;;;;;120.00;23.60;;;1.20;99.90;;;;;;5031988;28;20228;-82
2023/12/09 00:10:17;;;;;;;87.47;21.33;;;1.20;99.90;;;;;;5038342;28;20223;-82
2023/12/09 00:12:44;;;;;;;86.27;21.30;;;1.20;99.90;;;;;;5029485;28;20463;-82
2023/12/09 00:15:12;;;;;;;300.73;32.73;;;1.30;99.90;;;;;;5032773;28;20336;-82
2023/12/09 00:17:38;;;;;;;152.13;24.90;;;1.30;99.90;;;;;;5049212;28;20339;-81
2023/12/09 00:20:07;;;;;;;177.97;26.37;;;1.30;99.90;;;;;;5033413;28;20438;-81
2023/12/09 00:22:35;;;;;;;146.87;26.03;;;1.30;99.90;;;;;;5044632;28;20727;-81
2023/12/09 00:25:03;;;;;;;170.47;25.33;;;1.30;99.90;;;;;;5031498;28;20224;-81
2023/12/09 00:27:30;;;;;;;96.00;22.17;;;1.30;99.90;;;;;;5043172;28;20225;-81
2023/12/09 00:29:57;;;;;;;102.63;21.43;;;1.30;99.90;;;;;;5050997;28;20227;-81
2023/12/09 00:32:24;;;;;;;243.57;27.63;;;1.30;99.90;;;;;;5031632;28;20227;-81
2023/12/09 00:34:51;;;;;;;226.80;28.77;;;1.30;99.90;;;;;;5029214;28;20225;-81
2023/12/09 00:37:17;;;;;;;198.40;28.77;;;1.30;99.90;;;;;;5049551;28;20267;-81
2023/12/09 00:39:45;;;;;;;102.20;21.73;;;1.30;99.90;;;;;;5031785;28;20242;-80
2023/12/09 00:42:12;;;;;;;313.77;34.43;;;1.30;99.90;;;;;;5046611;28;20254;-80
2023/12/09 00:44:39;;;;;;;246.60;30.07;;;1.30;99.90;;;;;;5027887;28;20262;-80
2023/12/09 00:47:06;;;;;;;223.27;28.80;;;1.30;99.90;;;;;;5019071;28;20248;-80
2023/12/09 00:49:32;;;;;;;293.43;30.20;;;1.30;99.90;;;;;;5053456;28;20979;-80
2023/12/09 00:51:59;;;;;;;128.10;22.93;;;1.30;99.90;;;;;;5056165;28;20278;-81
2023/12/09 00:54:26;;;;;;;92.53;20.77;;;1.30;99.90;;;;;;5032199;28;20228;-81
2023/12/09 00:56:54;;;;;;;95.77;20.60;;;1.30;99.90;;;;;;5052567;28;20220;-81
2023/12/09 00:59:21;;;;;;;102.83;21.73;;;1.40;99.90;;;;;;5031470;28;20235;-81
2023/12/09 01:01:47;;;;;;;71.37;21.23;;;1.40;99.90;;;;;;5047284;28;20648;-81
2023/12/09 01:04:14;;;;;;;120.20;22.70;;;1.40;99.90;;;;;;5049385;28;20312;-81
2023/12/09 01:06:41;;;;;;;59.33;19.30;;;1.30;99.90;;;;;;5047580;28;20245;-81
2023/12/09 01:09:08;;;;;;;72.33;19.17;;;1.40;99.90;;;;;;5048856;28;20324;-81
2023/12/09 01:11:35;;;;;;;49.47;17.87;;;1.40;99.90;;;;;;5053872;28;20275;-81
2023/12/09 01:14:03;;;;;;;154.17;23.63;;;1.30;99.90;;;;;;5044351;28;20659;-81
2023/12/09 01:16:30;;;;;;;119.73;22.30;;;1.40;99.90;;;;;;5030012;28;20246;-81
2023/12/09 01:18:57;;;;;;;165.27;24.70;;;1.40;99.90;;;;;;5036561;28;20309;-81
2023/12/09 01:21:24;;;;;;;89.20;20.97;;;1.40;99.90;;;;;;5044291;28;20445;-81
2023/12/09 01:23:51;;;;;;;62.97;18.97;;;1.40;99.90;;;;;;5029368;28;20240;-81
2023/12/09 01:26:18;;;;;;;205.60;25.37;;;1.40;99.90;;;;;;5025243;28;20228;-81
2023/12/09 01:28:45;;;;;;;64.77;18.00;;;1.40;99.90;;;;;;5029835;28;20251;-80
2023/12/09 01:31:13;;;;;;;98.00;20.17;;;1.40;99.90;;;;;;5042412;28;20226;-80
2023/12/09 01:33:40;;;;;;;164.10;22.73;;;1.40;99.90;;;;;;5048582;28;20236;-80
2023/12/09 01:36:07;;;;;;;232.10;26.93;;;1.40;99.90;;;;;;5030393;28;20212;-81
2023/12/09 01:38:36;;;;;;;83.57;19.43;;;1.50;99.90;;;;;;5039663;28;20271;-81
2023/12/09 01:41:03;;;;;;;76.20;19.23;;;1.40;99.90;;;;;;5045929;28;20231;-80
2023/12/09 01:43:29;;;;;;;142.90;22.57;;;1.40;99.90;;;;;;5045496;28;20287;-81
2023/12/09 01:46:05;;;;;;;216.07;24.90;;;1.50;99.90;;;;;;5027882;28;20893;-81
2023/12/09 01:48:34;;;;;;;196.87;24.27;;;1.40;99.90;;;;;;5045943;28;20286;-81
2023/12/09 01:51:01;;;;;;;143.90;20.97;;;1.50;99.90;;;;;;5029628;28;20223;-81
2023/12/09 01:53:29;;;;;;;174.83;23.00;;;1.50;99.90;;;;;;5051354;28;20724;-81
2023/12/09 01:55:58;;;;;;;167.40;22.93;;;1.60;99.90;;;;;;5031490;28;20491;-81
2023/12/09 01:58:25;;;;;;;189.13;23.57;;;1.50;99.90;;;;;;5032534;28;20753;-81
2023/12/09 02:00:52;;;;;;;199.13;23.53;;;1.50;99.90;;;;;;5030302;28;20249;-81
2023/12/09 02:03:19;;;;;;;308.57;30.17;;;1.50;99.90;;;;;;5049229;28;20314;-81
2023/12/09 02:05:47;;;;;;;180.30;22.37;;;1.50;99.90;;;;;;5022857;28;20231;-81
2023/12/09 02:08:15;;;;;;;84.43;18.10;;;1.50;99.90;;;;;;5049097;28;20223;-81
2023/12/09 02:10:41;;;;;;;80.63;18.97;;;1.50;99.90;;;;;;5052801;28;20696;-81
2023/12/09 02:13:18;;;;;;;196.10;24.10;;;1.50;99.90;;;;;;5032940;28;20578;-81
2023/12/09 02:15:53;;;;;;;360.23;32.73;;;1.50;99.90;;;;;;5046675;28;20311;-82
2023/12/09 02:18:20;;;;;;;157.33;20.13;;;1.50;99.90;;;;;;5047398;28;20223;-80
2023/12/09 02:20:48;;;;;;;157.07;21.13;;;1.50;99.90;;;;;;5040532;28;20459;-80
2023/12/09 02:23:16;;;;;;;115.03;21.00;;;1.50;99.90;;;;;;5052514;28;20247;-80
2023/12/09 02:25:44;;;;;;;222.07;24.83;;;1.50;99.90;;;;;;5044586;28;20229;-81
2023/12/09 02:28:15;;;;;;;387.20;35.97;;;1.60;99.90;;;;;;5055875;28;20761;-80
2023/12/09 02:30:51;;;;;;;188.20;23.43;;;1.50;99.90;;;;;;5034665;28;20221;-80
2023/12/09 02:33:19;;;;;;;124.50;21.30;;;1.60;99.90;;;;;;5048915;28;20269;-80
2023/12/09 02:35:48;;;;;;;195.10;23.90;;;1.60;99.90;;;;;;5031220;28;20634;-80
2023/12/09 02:38:18;;;;;;;143.97;22.40;;;1.60;99.90;;;;;;5032601;28;20314;-80
2023/12/09 02:40:46;;;;;;;297.93;28.90;;;1.70;99.90;;;;;;5047660;28;20321;-80
2023/12/09 02:43:13;;;;;;;168.47;22.67;;;1.60;99.90;;;;;;5029935;28;20301;-80
2023/12/09 02:45:40;;;;;;;404.17;36.07;;;1.60;99.90;;;;;;5032086;28;20457;-80
2023/12/09 02:48:07;;;;;;;126.70;21.27;;;1.70;99.90;;;;;;5049397;28;20310;-80
2023/12/09 02:50:36;;;;;;;173.40;22.00;;;1.70;99.90;;;;;;5034476;28;20351;-80
2023/12/09 02:53:02;;;;;;;435.07;40.60;;;1.70;99.90;;;;;;5048067;28;20228;-80
2023/12/09 02:55:31;;;;;;;141.33;21.90;;;1.70;99.90;;;;;;5048947;28;20483;-80
2023/12/09 02:57:58;;;;;;;136.20;21.93;;;1.70;99.90;;;;;;5035553;28;20246;-80
2023/12/09 03:00:25;;;;;;;195.90;24.70;;;1.70;99.90;;;;;;5042294;28;20458;-81
2023/12/09 03:02:52;;;;;;;199.63;23.97;;;1.70;99.90;;;;;;5031347;28;21120;-80
2023/12/09 03:05:18;;;;;;;177.43;23.67;;;1.80;99.90;;;;;;5042782;28;20262;-80
2023/12/09 03:07:45;;;;;;;185.77;24.33;;;1.70;99.90;;;;;;5047454;28;20305;-80
2023/12/09 03:10:12;;;;;;;236.33;25.07;;;1.80;99.90;;;;;;5030571;28;20274;-80
2023/12/09 03:12:40;;;;;;;242.33;25.30;;;1.80;99.90;;;;;;5034891;28;20250;-81
2023/12/09 03:15:07;;;;;;;154.30;21.53;;;1.80;99.90;;;;;;5030577;28;20334;-80
2023/12/09 03:17:34;;;;;;;171.23;23.80;;;1.80;99.90;;;;;;5031780;28;20255;-80
2023/12/09 03:20:02;;;;;;;260.70;25.00;;;1.80;99.90;;;;;;5036125;28;20290;-80
2023/12/09 03:22:29;;;;;;;201.97;23.93;;;1.80;99.90;;;;;;5046869;28;20513;-80
2023/12/09 03:24:56;;;;;;;119.07;19.23;;;1.80;99.90;;;;;;5045912;28;20299;-80
2023/12/09 03:27:22;;;;;;;242.23;27.07;;;1.80;99.90;;;;;;5051308;28;20311;-81
2023/12/09 03:29:51;;;;;;;241.63;24.87;;;1.80;99.90;;;;;;5030644;28;20678;-80
2023/12/09 03:32:18;;;;;;;185.50;24.40;;;1.80;99.90;;;;;;5047573;28;20772;-81
2023/12/09 03:34:45;;;;;;;141.57;22.13;;;1.80;99.90;;;;;;5050057;28;20750;-82
2023/12/09 03:37:12;;;;;;;183.50;22.50;;;1.80;99.90;;;;;;5040795;28;20216;-82
2023/12/09 03:39:39;;;;;;;114.07;21.10;;;1.90;99.90;;;;;;5034444;28;20223;-81
2023/12/09 03:42:06;;;;;;;224.60;25.70;;;1.90;99.90;;;;;;5036928;28;20319;-81
2023/12/09 03:44:33;;;;;;;167.10;24.57;;;1.90;99.90;;;;;;5052748;28;20270;-81
2023/12/09 03:47:01;;;;;;;179.43;25.13;;;1.90;99.90;;;;;;5031852;28;20418;-81
2023/12/09 03:49:28;;;;;;;146.20;23.30;;;1.90;99.90;;;;;;5048346;28;20637;-81
2023/12/09 03:51:54;;;;;;;170.33;22.87;;;1.90;99.90;;;;;;5055334;28;20221;-81
2023/12/09 03:54:21;;;;;;;150.53;21.30;;;1.90;99.90;;;;;;5040491;28;20232;-82
2023/12/09 03:56:48;;;;;;;154.43;23.87;;;2.00;99.90;;;;;;5051477;28;20230;-81
2023/12/09 03:59:15;;;;;;;186.83;25.03;;;2.00;99.90;;;;;;5035156;28;20246;-81
2023/12/09 04:01:48;;;;;;;120.73;21.30;;;2.00;99.90;;;;;;5032359;28;20215;-82
2023/12/09 04:04:16;;;;;;;101.33;22.37;;;2.00;99.90;;;;;;5047711;28;20730;-82
2023/12/09 04:06:43;;;;;;;199.73;26.87;;;2.00;99.90;;;;;;5040698;28;20232;-82
2023/12/09 04:09:10;;;;;;;185.87;24.40;;;2.10;99.90;;;;;;5025850;28;20432;-82
2023/12/09 04:11:37;;;;;;;165.67;24.53;;;2.10;99.90;;;;;;5032734;28;20634;-82
2023/12/09 04:14:05;;;;;;;154.93;23.70;;;2.10;99.90;;;;;;5051765;28;20228;-82
2023/12/09 04:16:32;;;;;;;148.73;24.03;;;2.10;99.90;;;;;;5034209;28;20258;-82
2023/12/09 04:18:59;;;;;;;206.63;28.53;;;2.20;99.90;;;;;;5048803;28;20225;-81
2023/12/09 04:21:27;;;;;;;135.53;23.33;;;2.20;99.90;;;;;;5033751;28;20658;-81
2023/12/09 04:23:54;;;;;;;181.10;25.43;;;2.20;99.90;;;;;;5047824;28;20244;-81
2023/12/09 04:26:21;;;;;;;180.73;25.23;;;2.20;99.90;;;;;;5029195;28;20720;-81
2023/12/09 04:28:48;;;;;;;178.50;26.37;;;2.20;99.90;;;;;;5048589;28;20253;-81
2023/12/09 04:31:14;;;;;;;106.70;22.87;;;2.20;99.90;;;;;;5043714;28;20691;-81
2023/12/09 04:33:44;;;;;;;237.13;28.90;;;2.20;99.90;;;;;;5051850;28;20702;-80
2023/12/09 04:36:11;;;;;;;107.93;22.07;;;2.20;99.90;;;;;;5054390;28;20313;-81
2023/12/09 04:38:39;;;;;;;272.13;30.13;;;2.20;99.90;;;;;;5046467;28;20256;-81
2023/12/09 04:41:06;;;;;;;174.90;26.57;;;2.30;99.90;;;;;;5045758;28;20241;-81
2023/12/09 04:43:33;;;;;;;176.13;25.90;;;2.30;99.90;;;;;;5036421;28;20228;-81
2023/12/09 04:46:00;;;;;;;155.10;25.60;;;2.30;99.90;;;;;;5043577;28;20290;-81
2023/12/09 04:48:27;;;;;;;145.73;24.70;;;2.30;99.90;;;;;;5050452;28;20707;-81
2023/12/09 04:50:53;;;;;;;130.57;23.70;;;2.30;99.90;;;;;;5050843;28;20752;-81
2023/12/09 04:53:20;;;;;;;88.07;24.00;;;2.30;99.90;;;;;;5029033;28;20279;-81
2023/12/09 04:55:48;;;;;;;190.70;28.00;;;2.30;99.90;;;;;;5046302;28;20297;-81
2023/12/09 04:58:15;;;;;;;124.97;22.87;;;2.30;99.90;;;;;;5033069;28;20257;-81
2023/12/09 05:00:42;;;;;;;183.80;28.90;;;2.30;99.90;;;;;;5035368;28;20303;-80
2023/12/09 05:03:08;;;;;;;91.87;24.57;;;2.40;99.90;;;;;;5049609;28;20528;-81
2023/12/09 05:05:35;;;;;;;258.00;31.80;;;2.40;99.90;;;;;;5045502;28;20277;-81
2023/12/09 05:08:03;;;;;;;95.67;23.67;;;2.40;99.90;;;;;;5035204;28;20749;-81
2023/12/09 05:10:30;;;;;;;140.50;26.13;;;2.40;99.90;;;;;;5047855;28;20223;-81
2023/12/09 05:12:58;;;;;;;142.23;27.27;;;2.40;99.90;;;;;;5041285;28;20658;-81
2023/12/09 05:15:25;;;;;;;157.23;25.50;;;2.40;99.90;;;;;;5043368;28;21213;-83
2023/12/09 05:17:51;;;;;;;144.93;26.37;;;2.40;99.90;;;;;;5045780;28;20285;-82
2023/12/09 05:20:18;;;;;;;86.97;24.90;;;2.50;99.90;;;;;;5028286;28;20233;-82
2023/12/09 05:22:46;;;;;;;386.13;40.77;;;2.40;99.90;;;;;;5026963;28;20223;-82
2023/12/09 05:25:14;;;;;;;120.27;24.90;;;2.50;99.90;;;;;;5028326;28;20231;-82
2023/12/09 05:27:41;;;;;;;120.10;25.50;;;2.50;99.90;;;;;;5043755;28;20220;-81
2023/12/09 05:30:11;;;;;;;79.43;24.23;;;2.50;99.90;;;;;;5041207;28;20231;-82
2023/12/09 05:32:38;;;;;;;113.93;24.93;;;2.50;99.90;;;;;;5024756;28;20230;-82
2023/12/09 05:35:06;;;;;;;84.67;23.77;;;2.50;99.90;;;;;;5040513;28;20645;-83
2023/12/09 05:37:33;;;;;;;106.67;25.20;;;2.50;99.90;;;;;;5024355;28;20225;-81
2023/12/09 05:40:00;;;;;;;86.73;22.57;;;2.60;99.90;;;;;;5025526;28;20473;-82
2023/12/09 05:42:27;;;;;;;73.50;22.50;;;2.60;99.90;;;;;;5037994;28;20543;-81
2023/12/09 05:44:54;;;;;;;126.10;26.40;;;2.60;99.90;;;;;;5023458;28;20306;-82
2023/12/09 05:47:24;;;;;;;75.57;23.30;;;2.60;99.90;;;;;;5044015;28;20696;-82
2023/12/09 05:49:51;;;;;;;88.40;24.87;;;2.60;99.90;;;;;;5030753;28;20717;-81
2023/12/09 05:52:19;;;;;;;107.30;23.67;;;2.60;99.90;;;;;;5027487;28;20746;-80
2023/12/09 05:54:46;;;;;;;100.27;25.87;;;2.60;99.90;;;;;;5045655;28;20274;-82
2023/12/09 05:57:13;;;;;;;133.67;25.90;;;2.60;99.90;;;;;;5024569;28;20244;-84
2023/12/09 05:59:39;;;;;;;77.07;22.70;;;2.60;99.90;;;;;;5042660;28;20510;-85
2023/12/09 06:02:06;;;;;;;101.43;25.77;;;2.60;99.90;;;;;;5037902;28;20224;-83
2023/12/09 06:04:34;;;;;;;165.43;28.37;;;2.60;99.90;;;;;;5025095;28;20251;-84
2023/12/09 06:07:01;;;;;;;91.57;24.90;;;2.60;99.90;;;;;;5024915;28;20263;-84
2023/12/09 06:09:28;;;;;;;77.33;24.10;;;2.70;99.90;;;;;;5022667;28;20230;-84
2023/12/09 06:11:56;;;;;;;106.07;25.13;;;2.60;99.90;;;;;;5026003;28;20267;-84
2023/12/09 06:14:23;;;;;;;52.73;21.93;;;2.70;99.90;;;;;;5023194;28;20249;-83
2023/12/09 06:16:49;;;;;;;57.83;22.10;;;2.70;99.90;;;;;;5017581;28;20855;-83
2023/12/09 06:19:16;;;;;;;154.67;26.80;;;2.70;99.90;;;;;;5022130;28;20236;-83
2023/12/09 06:21:45;;;;;;;55.77;21.80;;;2.70;99.90;;;;;;5021413;28;20226;-83
2023/12/09 06:24:14;;;;;;;63.17;21.67;;;2.80;99.90;;;;;;5038134;28;20740;-83
2023/12/09 06:26:44;;;;;;;189.23;28.77;;;2.80;99.90;;;;;;5037524;28;20230;-83
2023/12/09 06:29:14;;;;;;;59.10;21.23;;;2.80;99.90;;;;;;5016637;28;20314;-84
2023/12/09 06:31:40;;;;;;;67.50;21.53;;;2.80;99.90;;;;;;5026745;28;20227;-83
2023/12/09 06:34:07;;;;;;;71.63;23.23;;;2.80;99.90;;;;;;5035717;28;20221;-84
2023/12/09 06:36:34;;;;;;;66.00;22.37;;;2.80;99.90;;;;;;5021442;28;20226;-83
2023/12/09 06:39:03;;;;;;;63.03;21.77;;;2.80;99.90;;;;;;5022209;28;20235;-83
2023/12/09 06:41:30;;;;;;;115.27;24.77;;;2.80;99.90;;;;;;5035607;28;20229;-84
2023/12/09 06:43:57;;;;;;;55.47;21.87;;;2.90;99.90;;;;;;5017634;28;20743;-84
2023/12/09 06:46:23;;;;;;;61.27;22.63;;;2.90;99.90;;;;;;5020588;28;20228;-83
2023/12/09 06:48:50;;;;;;;53.67;20.93;;;2.90;99.90;;;;;;5041909;28;20248;-82
2023/12/09 06:51:17;;;;;;;57.83;21.10;;;2.90;99.90;;;;;;5023427;28;20242;-83
2023/12/09 06:53:44;;;;;;;56.30;21.47;;;2.90;99.90;;;;;;5041586;28;20229;-82
2023/12/09 06:56:20;;;;;;;48.03;21.67;;;2.90;99.90;;;;;;5044078;28;20343;-82
2023/12/09 06:58:47;;;;;;;50.83;20.47;;;2.90;99.90;;;;;;5026545;28;20250;-83
2023/12/09 07:01:19;;;;;;;59.27;20.47;;;2.90;99.90;;;;;;5032554;28;20227;-84
2023/12/09 07:03:47;;;;;;;46.07;21.80;;;2.90;99.90;;;;;;5021159;28;20419;-83
2023/12/09 07:06:14;;;;;;;57.63;21.57;;;2.90;99.90;;;;;;5044381;28;20219;-83
2023/12/09 07:08:44;;;;;;;56.77;20.97;;;2.90;99.90;;;;;;5048389;28;20224;-82
2023/12/09 07:11:11;;;;;;;47.53;18.73;;;3.00;99.90;;;;;;5019352;28;20219;-82
2023/12/09 07:13:39;;;;;;;59.77;21.00;;;2.90;99.90;;;;;;5051901;28;20237;-83
2023/12/09 07:16:08;;;;;;;49.27;19.27;;;2.90;99.90;;;;;;5046521;28;20740;-82
2023/12/09 07:18:35;;;;;;;48.67;19.43;;;2.90;99.90;;;;;;5025182;28;20330;-82
2023/12/09 07:21:02;;;;;;;53.03;19.50;;;2.90;99.90;;;;;;5046017;28;20273;-83
2023/12/09 07:23:28;;;;;;;48.17;20.83;;;2.90;99.90;;;;;;5055357;28;20884;-82
2023/12/09 07:25:56;;;;;;;48.23;19.67;;;2.90;99.90;;;;;;5033018;28;20214;-83
2023/12/09 07:28:23;;;;;;;50.83;19.77;;;2.90;99.90;;;;;;5030733;28;20238;-83
2023/12/09 07:30:51;;;;;;;45.10;20.40;;;2.90;99.90;;;;;;5045069;28;20913;-82
2023/12/09 07:33:18;;;;;;;46.80;19.23;;;2.90;99.90;;;;;;5048298;28;20436;-83
2023/12/09 07:35:44;;;;;;;37.73;18.47;;;2.90;99.90;;;;;;5048940;28;20774;-83
2023/12/09 07:38:11;;;;;;;64.93;20.83;;;3.00;99.90;;;;;;5027329;28;20223;-83
2023/12/09 07:40:38;;;;;;;61.60;20.50;;;2.90;99.90;;;;;;5034048;28;20598;-82
2023/12/09 07:43:06;;;;;;;46.40;19.33;;;3.00;99.90;;;;;;5040426;28;20312;-82
2023/12/09 07:45:33;;;;;;;71.47;21.13;;;2.90;99.90;;;;;;5028339;28;20233;-82
2023/12/09 07:48:01;;;;;;;43.57;19.53;;;3.00;99.90;;;;;;5054370;28;20244;-82
2023/12/09 07:50:28;;;;;;;53.53;18.80;;;3.00;99.90;;;;;;5047950;28;20227;-82
2023/12/09 07:52:55;;;;;;;45.17;19.37;;;3.00;99.90;;;;;;5047430;28;20314;-82
2023/12/09 07:55:21;;;;;;;65.30;19.30;;;3.00;99.90;;;;;;5046574;28;20311;-81
2023/12/09 07:57:48;;;;;;;35.43;17.27;;;3.00;99.90;;;;;;5031691;28;20304;-81
2023/12/09 08:00:16;;;;;;;39.27;18.63;;;3.00;99.90;;;;;;5026372;28;20229;-81
2023/12/09 08:02:43;;;;;;;36.43;17.30;;;3.00;99.90;;;;;;5030667;28;20760;-81
2023/12/09 08:05:11;;;;;;;41.53;17.67;;;3.00;99.90;;;;;;5044615;28;20288;-81
2023/12/09 08:07:38;;;;;;;37.20;17.27;;;3.00;99.90;;;;;;5047571;28;20224;-81
2023/12/09 08:10:06;;;;;;;28.80;16.97;;;3.00;99.90;;;;;;5013674;28;20428;-82
2023/12/09 08:12:33;;;;;;;57.63;19.17;;;3.00;99.90;;;;;;5025648;28;20907;-81
2023/12/09 08:14:59;;;;;;;58.77;18.17;;;3.00;99.90;;;;;;5020593;28;20230;-81
2023/12/09 08:17:26;;;;;;;36.93;17.63;;;3.10;99.90;;;;;;5023164;28;20237;-80
2023/12/09 08:19:53;;;;;;;38.13;17.53;;;3.10;99.90;;;;;;5012838;28;20322;-80
2023/12/09 08:22:22;;;;;;;32.40;16.40;;;3.10;99.90;;;;;;5010146;28;20233;-80
2023/12/09 08:24:49;;;;;;;40.23;17.93;;;3.10;99.90;;;;;;5014738;28;20229;-80
2023/12/09 08:27:15;;;;;;;37.60;17.47;;;3.20;99.90;;;;;;5031625;28;20217;-80
2023/12/09 08:29:42;;;;;;;33.17;16.07;;;3.20;99.90;;;;;;5031346;28;20316;-80
2023/12/09 08:32:09;;;;;;;31.23;15.70;;;3.10;99.90;;;;;;5013040;28;20321;-79
2023/12/09 08:34:36;;;;;;;42.13;17.10;;;3.20;99.90;;;;;;5016771;28;20225;-79
2023/12/09 08:37:03;;;;;;;93.47;18.97;;;3.30;99.90;;;;;;5012199;28;20253;-80
2023/12/09 08:39:31;;;;;;;47.43;16.63;;;3.30;99.90;;;;;;5031604;28;20705;-83
2023/12/09 08:41:58;;;;;;;48.77;16.40;;;3.30;99.90;;;;;;5016204;28;20297;-80
2023/12/09 08:44:25;;;;;;;45.00;16.43;;;3.30;99.90;;;;;;5033079;28;20265;-81
2023/12/09 08:46:52;;;;;;;49.17;17.03;;;3.40;99.90;;;;;;5037586;28;20779;-81
2023/12/09 08:49:18;;;;;;;38.13;15.57;;;3.40;99.90;;;;;;5019711;28;20458;-81
2023/12/09 08:51:45;;;;;;;67.43;17.57;;;3.40;99.90;;;;;;5032339;28;20222;-82
2023/12/09 08:54:13;;;;;;;35.30;15.10;;;3.40;99.90;;;;;;5031231;28;20607;-81
2023/12/09 08:56:41;;;;;;;33.83;14.80;;;3.40;99.90;;;;;;5037210;28;20650;-82
2023/12/09 08:59:10;;;;;;;40.03;14.97;;;3.50;99.90;;;;;;5013348;28;20242;-83
2023/12/09 09:01:37;;;;;;;40.17;14.83;;;3.50;99.90;;;;;;5020625;28;20232;-83
2023/12/09 09:04:04;;;;;;;34.03;15.30;;;3.50;99.90;;;;;;5031792;28;20234;-82
2023/12/09 09:06:31;;;;;;;36.37;15.47;;;3.50;99.90;;;;;;5011323;28;20253;-82
2023/12/09 09:08:58;;;;;;;31.00;14.80;;;3.50;99.90;;;;;;5008757;28;20221;-81
2023/12/09 09:11:25;;;;;;;30.07;15.10;;;3.50;99.90;;;;;;5028188;28;20232;-83
2023/12/09 09:13:53;;;;;;;35.93;15.00;;;3.60;99.90;;;;;;5021195;28;20312;-83
2023/12/09 09:16:19;;;;;;;28.43;14.13;;;3.60;99.90;;;;;;5034667;28;20245;-83
2023/12/09 09:18:46;;;;;;;37.43;14.97;;;3.60;99.90;;;;;;5016206;28;20227;-81
2023/12/09 09:21:13;;;;;;;38.33;15.57;;;3.70;99.90;;;;;;5029550;28;20230;-82
2023/12/09 09:23:39;;;;;;;27.30;13.97;;;3.60;99.90;;;;;;5015576;28;20261;-82
2023/12/09 09:26:06;;;;;;;45.60;14.90;;;3.70;99.90;;;;;;5015412;28;20314;-82
2023/12/09 09:28:33;;;;;;;25.63;13.40;;;3.70;99.90;;;;;;5030077;28;20224;-82
2023/12/09 09:31:01;;;;;;;49.50;14.33;;;3.70;99.90;;;;;;5038533;28;20221;-83
2023/12/09 09:33:28;;;;;;;39.23;14.17;;;3.80;99.90;;;;;;5004101;28;20230;-82
2023/12/09 09:35:55;;;;;;;30.70;13.23;;;3.80;99.90;;;;;;5033607;28;20738;-82
2023/12/09 09:38:22;;;;;;;27.87;13.00;;;3.80;99.90;;;;;;5027803;28;20259;-84
2023/12/09 09:40:50;;;;;;;24.40;13.60;;;3.90;99.90;;;;;;5009359;28;20226;-85
2023/12/09 09:43:21;;;;;;;23.70;12.63;;;4.00;99.90;;;;;;5008110;28;20279;-83
2023/12/09 09:45:48;;;;;;;26.00;12.37;;;4.00;99.90;;;;;;5023303;28;20925;-83
2023/12/09 09:48:17;;;;;;;23.57;13.00;;;4.00;99.90;;;;;;5030116;28;20289;-83
2023/12/09 09:50:47;;;;;;;22.47;12.20;;;4.10;99.90;;;;;;5028587;28;20325;-83
2023/12/09 09:53:16;;;;;;;25.03;12.57;;;4.10;99.90;;;;;;5028310;28;20804;-82
2023/12/09 09:55:43;;;;;;;22.67;12.53;;;4.10;99.90;;;;;;5028157;28;20238;-83
2023/12/09 09:58:10;;;;;;;22.57;12.23;;;4.10;99.90;;;;;;5009288;28;20488;-83
2023/12/09 10:00:38;;;;;;;24.83;12.83;;;4.20;99.90;;;;;;5012827;28;20251;-83
2023/12/09 10:03:05;;;;;;;22.93;11.57;;;4.20;99.90;;;;;;5025333;28;20791;-84
2023/12/09 10:05:33;;;;;;;23.10;13.40;;;4.20;99.90;;;;;;5023722;28;20288;-84
2023/12/09 10:08:01;;;;;;;20.60;11.53;;;4.20;99.90;;;;;;5010428;28;20224;-83
2023/12/09 10:10:29;;;;;;;21.77;11.87;;;4.20;99.90;;;;;;5002514;28;20254;-84
2023/12/09 10:12:56;;;;;;;28.33;11.63;;;4.20;99.90;;;;;;5016935;28;20242;-83
2023/12/09 10:15:22;;;;;;;21.37;11.47;;;4.20;99.90;;;;;;5012079;28;20223;-84
2023/12/09 10:17:49;;;;;;;24.00;12.20;;;4.20;99.90;;;;;;5024917;28;20313;-84
2023/12/09 10:20:16;;;;;;;20.70;11.87;;;4.20;99.90;;;;;;5009388;28;20278;-84
2023/12/09 10:22:46;;;;;;;21.77;11.90;;;4.30;99.90;;;;;;5027947;28;20321;-84
2023/12/09 10:25:21;;;;;;;19.07;11.50;;;4.30;99.90;;;;;;5027536;28;20253;-84
2023/12/09 10:27:47;;;;;;;20.73;11.70;;;4.30;99.90;;;;;;5031517;28;20480;-84
2023/12/09 10:30:14;;;;;;;20.60;11.87;;;4.30;99.90;;;;;;5016216;28;20303;-85
2023/12/09 10:32:41;;;;;;;23.10;12.37;;;4.30;99.90;;;;;;5030910;28;20306;-85
2023/12/09 10:35:09;;;;;;;19.97;11.63;;;4.40;99.90;;;;;;5015226;28;20254;-85
2023/12/09 10:37:36;;;;;;;23.37;11.80;;;4.40;99.90;;;;;;5028334;28;20222;-85
2023/12/09 10:40:08;;;;;;;29.13;12.43;;;4.40;99.90;;;;;;5027845;28;20814;-89
2023/12/09 10:42:37;;;;;;;21.57;11.77;;;4.50;99.90;;;;;;5016536;28;20247;-85
2023/12/09 10:45:05;;;;;;;22.30;11.63;;;4.50;99.90;;;;;;5007301;28;20914;-85
2023/12/09 10:47:31;;;;;;;21.67;11.60;;;4.50;99.90;;;;;;5026498;28;20255;-84
2023/12/09 10:49:58;;;;;;;22.10;11.70;;;4.60;99.90;;;;;;5034723;28;20219;-84
2023/12/09 10:52:25;;;;;;;23.63;11.57;;;4.60;99.90;;;;;;5006733;28;20225;-85
2023/12/09 10:54:52;;;;;;;21.37;10.30;;;4.70;99.90;;;;;;5027978;28;20500;-84
2023/12/09 10:57:20;;;;;;;23.67;11.60;;;4.80;99.90;;;;;;5027376;28;20251;-85
2023/12/09 10:59:47;;;;;;;21.83;11.87;;;4.80;99.90;;;;;;5025345;28;20249;-84
2023/12/09 11:02:15;;;;;;;23.60;11.57;;;4.80;99.90;;;;;;5030254;28;20296;-84
2023/12/09 11:04:43;;;;;;;18.53;11.10;;;4.80;99.90;;;;;;5023161;28;20290;-85
2023/12/09 11:07:11;;;;;;;17.90;10.30;;;4.90;99.90;;;;;;5013012;28;20265;-83
2023/12/09 11:09:40;;;;;;;20.07;10.20;;;4.90;99.90;;;;;;5031492;28;20738;-84
2023/12/09 11:12:08;;;;;;;22.30;11.20;;;4.90;99.90;;;;;;5030545;28;20238;-82
2023/12/09 11:14:38;;;;;;;19.50;10.00;;;4.90;99.90;;;;;;5020768;28;20228;-82
2023/12/09 11:17:34;;;;;;;19.90;10.33;;;4.90;99.90;;;;;;5037960;28;20259;-82
2023/12/09 11:20:06;;;;;;;16.97;9.67;;;4.90;99.90;;;;;;5028411;28;20429;-82
2023/12/09 11:22:37;;;;;;;19.20;10.67;;;4.80;99.90;;;;;;5024455;28;20548;-82
2023/12/09 11:25:05;;;;;;;17.53;10.03;;;4.80;99.90;;;;;;5038120;28;20661;-82
2023/12/09 11:27:34;;;;;;;21.27;10.20;;;4.80;99.90;;;;;;5027900;28;20603;-82
2023/12/09 11:30:03;;;;;;;17.93;9.67;;;4.80;99.90;;;;;;5045263;28;20706;-82
2023/12/09 11:32:30;;;;;;;18.13;10.63;;;4.80;99.90;;;;;;5014153;28;20349;-82
2023/12/09 11:34:58;;;;;;;20.27;10.37;;;4.70;99.90;;;;;;5022337;28;20265;-82
2023/12/09 11:37:27;;;;;;;21.70;10.30;;;4.70;99.90;;;;;;5031584;28;20287;-82
2023/12/09 11:39:55;;;;;;;19.10;11.00;;;4.70;99.90;;;;;;5037492;28;20695;-82
2023/12/09 11:42:23;;;;;;;19.27;10.57;;;4.70;99.90;;;;;;5038124;28;20258;-81
2023/12/09 11:44:51;;;;;;;16.73;10.97;;;4.70;99.90;;;;;;5027900;28;20270;-81
2023/12/09 11:47:20;;;;;;;17.37;10.40;;;4.70;99.90;;;;;;5033723;28;20323;-83
2023/12/09 11:49:47;;;;;;;15.50;8.87;;;4.70;99.90;;;;;;5025987;28;20263;-83
2023/12/09 11:52:15;;;;;;;18.47;10.93;;;4.70;99.90;;;;;;5017562;28;20219;-83
2023/12/09 11:54:42;;;;;;;14.70;9.43;;;4.70;99.90;;;;;;5028486;28;20789;-82
2023/12/09 11:57:09;;;;;;;18.47;9.83;;;4.70;99.90;;;;;;5033742;28;20282;-83
2023/12/09 11:59:37;;;;;;;14.10;8.93;;;4.70;99.90;;;;;;5024808;28;20226;-83
2023/12/09 12:02:04;;;;;;;16.60;9.57;;;4.70;99.90;;;;;;5023744;28;20230;-83
2023/12/09 12:04:35;;;;;;;18.63;9.03;;;4.70;99.90;;;;;;5034954;28;20730;-83
2023/12/09 12:07:02;;;;;;;17.80;9.10;;;4.70;99.90;;;;;;5010298;28;20293;-84
2023/12/09 12:09:28;;;;;;;15.87;9.50;;;4.70;99.90;;;;;;4997402;28;20253;-84
2023/12/09 12:11:55;;;;;;;18.47;9.50;;;4.70;99.90;;;;;;5007958;28;20339;-85
2023/12/09 12:14:22;;;;;;;15.70;8.97;;;4.70;99.90;;;;;;5026665;28;20278;-85
2023/12/09 12:16:49;;;;;;;14.07;9.20;;;4.70;99.90;;;;;;5012326;28;20514;-85
2023/12/09 12:19:17;;;;;;;15.63;9.63;;;4.70;99.90;;;;;;5032531;28;20268;-85
2023/12/09 12:21:52;;;;;;;15.63;8.70;;;4.70;99.90;;;;;;5033606;28;20239;-84
2023/12/09 12:24:19;;;;;;;16.10;9.00;;;4.70;99.90;;;;;;5027178;28;20681;-85
2023/12/09 12:26:46;;;;;;;17.13;8.67;;;4.70;99.90;;;;;;5028830;28;20256;-85
2023/12/09 12:29:18;;;;;;;15.90;8.73;;;4.60;99.90;;;;;;5021008;28;20708;-85
2023/12/09 12:31:48;;;;;;;13.23;8.40;;;4.60;99.90;;;;;;5019561;28;20227;-84
2023/12/09 12:34:17;;;;;;;14.27;7.80;;;4.60;99.90;;;;;;5004736;28;20247;-84